Time;durP1;ratioP1;P1;durP2;ratioP2;P2;SDS_P1;SDS_P2;PMS_P1;PMS_P2;Temp;Humidity;BMP_temperature;BMP_pressure;BME280_temperature;BME280_humidity;BME280_pressure;Samples;Min_cycle;Max_cycle;Signal;HPM_P1;HPM_P2
2021/01/13 00:01:45;;;;;;;5.70;4.73;;;8.00;60.00;;;;;;5049183;28;20220;-41
2021/01/13 00:04:12;;;;;;;6.07;4.57;;;8.00;60.10;;;;;;5048960;28;20532;-41
2021/01/13 00:06:37;;;;;;;6.13;4.87;;;8.00;60.00;;;;;;5051869;28;20196;-41
2021/01/13 00:09:04;;;;;;;5.30;4.80;;;8.00;59.90;;;;;;5053573;28;20433;-41
2021/01/13 00:11:29;;;;;;;10.27;5.93;;;8.00;59.70;;;;;;5053717;28;20526;-41
2021/01/13 00:13:55;;;;;;;6.13;5.37;;;8.00;59.90;;;;;;5053579;28;20438;-41
2021/01/13 00:16:21;;;;;;;8.23;5.30;;;8.00;59.80;;;;;;5053493;28;20229;-41
2021/01/13 00:18:49;;;;;;;6.87;5.00;;;8.00;59.90;;;;;;5053512;28;20554;-41
2021/01/13 00:21:15;;;;;;;6.10;4.77;;;8.00;59.90;;;;;;5054058;28;20279;-41
2021/01/13 00:23:45;;;;;;;9.20;5.30;;;8.00;60.00;;;;;;5053538;28;20431;-41
2021/01/13 00:26:18;;;;;;;7.53;4.67;;;8.00;60.00;;;;;;5052126;28;20823;-40
2021/01/13 00:28:43;;;;;;;11.43;5.43;;;8.10;60.20;;;;;;5051945;28;20779;-40
2021/01/13 00:31:11;;;;;;;6.03;5.07;;;8.00;60.30;;;;;;5053627;28;20476;-41
2021/01/13 00:33:37;;;;;;;7.30;5.10;;;8.00;60.30;;;;;;5047981;28;20189;-41
2021/01/13 00:36:03;;;;;;;7.50;4.70;;;8.00;60.10;;;;;;5054088;28;20427;-41
2021/01/13 00:38:29;;;;;;;6.17;4.17;;;8.10;60.00;;;;;;5052144;28;20553;-41
2021/01/13 00:40:54;;;;;;;6.30;4.97;;;8.00;59.80;;;;;;5053230;28;20458;-41
2021/01/13 00:43:20;;;;;;;9.90;4.77;;;8.00;59.80;;;;;;5052697;28;20228;-41
2021/01/13 00:45:45;;;;;;;6.23;5.23;;;8.10;60.00;;;;;;5053628;28;20765;-41
2021/01/13 00:48:11;;;;;;;5.70;4.43;;;8.10;60.00;;;;;;5052688;28;20820;-40
2021/01/13 00:50:36;;;;;;;6.77;5.10;;;8.00;59.90;;;;;;5053000;28;20193;-41
2021/01/13 00:53:02;;;;;;;7.40;4.73;;;8.00;59.80;;;;;;5052645;28;20193;-41
2021/01/13 00:55:29;;;;;;;5.87;4.67;;;8.10;59.90;;;;;;5053204;28;20191;-41
2021/01/13 00:57:55;;;;;;;5.30;4.53;;;8.10;59.90;;;;;;5052866;28;20192;-41
2021/01/13 01:00:21;;;;;;;6.63;4.77;;;8.00;59.90;;;;;;5052658;28;20488;-41
2021/01/13 01:02:46;;;;;;;5.37;4.57;;;8.10;60.00;;;;;;5050244;28;20227;-40
2021/01/13 01:05:12;;;;;;;4.33;3.70;;;8.10;59.90;;;;;;5052659;28;20706;-41
2021/01/13 01:07:42;;;;;;;6.87;4.27;;;8.10;60.00;;;;;;5052842;28;20189;-40
2021/01/13 01:10:19;;;;;;;7.10;5.00;;;8.10;60.30;;;;;;5049874;28;20192;-41
2021/01/13 01:12:45;;;;;;;4.50;4.00;;;8.00;60.60;;;;;;5052286;28;20434;-41
2021/01/13 01:15:13;;;;;;;7.03;4.23;;;7.90;60.70;;;;;;5052818;28;20517;-41
2021/01/13 01:17:39;;;;;;;6.10;4.07;;;8.00;60.40;;;;;;5047123;28;20790;-41
2021/01/13 01:20:05;;;;;;;6.77;4.23;;;8.10;60.20;;;;;;5055768;28;20434;-41
2021/01/13 01:22:31;;;;;;;6.30;4.17;;;8.10;59.80;;;;;;5051638;28;20213;-41
2021/01/13 01:24:56;;;;;;;5.00;3.03;;;8.10;59.90;;;;;;5052928;28;20778;-41
2021/01/13 01:27:22;;;;;;;6.07;3.80;;;8.10;59.90;;;;;;5051773;28;20347;-41
2021/01/13 01:29:47;;;;;;;5.33;3.70;;;8.10;59.90;;;;;;5051605;28;20196;-41
2021/01/13 01:32:13;;;;;;;4.50;4.00;;;8.00;59.80;;;;;;5044536;28;20185;-41
2021/01/13 01:34:38;;;;;;;4.73;3.50;;;8.10;60.00;;;;;;5052477;28;20589;-41
2021/01/13 01:37:04;;;;;;;4.20;3.50;;;8.10;60.00;;;;;;5052086;28;20208;-41
2021/01/13 01:39:29;;;;;;;5.83;3.77;;;8.10;59.90;;;;;;5052213;28;20191;-41
2021/01/13 01:41:55;;;;;;;7.30;3.40;;;8.10;60.00;;;;;;5052520;28;20239;-41
2021/01/13 01:44:20;;;;;;;3.97;3.63;;;8.10;59.90;;;;;;5050374;28;20188;-41
2021/01/13 01:46:50;;;;;;;4.83;3.37;;;8.10;59.90;;;;;;5052118;28;20193;-41
2021/01/13 01:49:17;;;;;;;4.43;3.20;;;8.20;59.80;;;;;;5051594;28;20199;-41
2021/01/13 01:52:02;;;;;;;4.23;3.57;;;8.20;59.60;;;;;;5051987;28;20423;-41
2021/01/13 01:54:34;;;;;;;3.40;3.10;;;8.20;59.70;;;;;;5040423;28;20423;-41
2021/01/13 01:57:03;;;;;;;3.87;3.13;;;8.10;59.80;;;;;;5050549;28;20788;-41
2021/01/13 01:59:48;;;;;;;4.27;3.03;;;8.20;59.70;;;;;;5051453;28;20427;-41
2021/01/13 02:02:16;;;;;;;3.90;3.50;;;8.20;59.40;;;;;;5049901;28;20481;-41
2021/01/13 02:04:43;;;;;;;3.40;3.10;;;8.10;59.50;;;;;;5051753;28;20871;-41
2021/01/13 02:07:09;;;;;;;5.90;3.17;;;8.20;59.40;;;;;;5051028;28;20427;-41
2021/01/13 02:09:36;;;;;;;4.10;3.70;;;8.30;59.40;;;;;;5051429;28;20439;-41
2021/01/13 02:12:12;;;;;;;10.40;3.37;;;8.30;59.40;;;;;;5051406;28;20652;-41
2021/01/13 02:14:43;;;;;;;4.77;3.67;;;8.30;59.40;;;;;;5051715;28;20426;-41
2021/01/13 02:17:10;;;;;;;4.00;3.17;;;8.30;59.90;;;;;;5051145;28;20914;-41
2021/01/13 02:19:47;;;;;;;6.00;3.33;;;8.30;59.40;;;;;;5045146;28;20420;-41
2021/01/13 02:22:17;;;;;;;4.30;2.70;;;8.30;59.30;;;;;;5043654;28;20493;-41
2021/01/13 02:24:51;;;;;;;4.83;3.20;;;8.30;59.20;;;;;;5049468;28;20432;-41
2021/01/13 02:27:46;;;;;;;4.43;3.07;;;8.30;59.20;;;;;;5049971;28;21073;-41
2021/01/13 02:30:16;;;;;;;5.83;3.40;;;8.30;59.20;;;;;;5051351;28;20435;-41
2021/01/13 02:32:47;;;;;;;6.00;3.43;;;8.30;59.30;;;;;;5050614;28;20431;-41
2021/01/13 02:35:27;;;;;;;4.33;3.03;;;8.30;59.50;;;;;;5046797;28;20790;-41
2021/01/13 02:38:23;;;;;;;7.37;3.60;;;8.30;59.40;;;;;;5050269;28;20454;-41
2021/01/13 02:40:49;;;;;;;4.03;2.93;;;8.30;59.20;;;;;;5037434;28;20482;-41
2021/01/13 02:43:18;;;;;;;3.93;3.53;;;8.30;59.30;;;;;;5044366;28;20574;-41
2021/01/13 02:45:46;;;;;;;3.97;3.57;;;8.30;59.30;;;;;;5046717;28;20798;-41
2021/01/13 02:48:33;;;;;;;4.10;3.30;;;8.30;59.40;;;;;;5049747;28;20564;-41
2021/01/13 02:51:00;;;;;;;4.70;3.23;;;8.30;59.40;;;;;;5048186;28;20782;-41
2021/01/13 02:53:29;;;;;;;3.10;2.83;;;8.30;59.30;;;;;;5049090;28;20436;-41
2021/01/13 02:56:07;;;;;;;7.20;3.70;;;8.30;59.40;;;;;;5049730;28;20439;-41
2021/01/13 02:58:36;;;;;;;3.90;3.50;;;8.30;59.50;;;;;;5044064;28;20442;-41
2021/01/13 03:01:05;;;;;;;5.53;3.80;;;8.30;59.50;;;;;;5049817;28;20572;-41
2021/01/13 03:03:32;;;;;;;6.60;3.90;;;8.30;59.50;;;;;;5050928;28;20962;-41
2021/01/13 03:06:08;;;;;;;7.23;3.97;;;8.20;59.50;;;;;;5051457;28;20431;-40
2021/01/13 03:08:52;;;;;;;5.17;4.20;;;8.30;59.60;;;;;;5049674;28;20431;-41
2021/01/13 03:11:21;;;;;;;3.87;3.47;;;8.20;59.40;;;;;;5050435;28;20423;-40
2021/01/13 03:13:47;;;;;;;5.50;3.80;;;8.20;59.60;;;;;;5049137;28;20513;-41
2021/01/13 03:16:14;;;;;;;6.23;3.60;;;8.30;59.50;;;;;;5050750;28;20514;-41
2021/01/13 03:19:02;;;;;;;5.10;2.97;;;8.30;59.30;;;;;;5049223;28;20558;-42
2021/01/13 03:21:41;;;;;;;4.17;3.23;;;8.30;59.40;;;;;;5048734;28;20526;-40
2021/01/13 03:24:15;;;;;;;4.83;3.47;;;8.30;59.40;;;;;;5049582;28;20604;-40
2021/01/13 03:26:46;;;;;;;3.80;3.37;;;8.30;59.30;;;;;;5049866;28;20427;-41
2021/01/13 03:29:19;;;;;;;5.40;3.03;;;8.30;59.40;;;;;;5049259;28;20527;-41
2021/01/13 03:32:05;;;;;;;6.90;3.60;;;8.30;59.40;;;;;;5049818;28;20418;-41
2021/01/13 03:34:33;;;;;;;4.23;3.20;;;8.30;59.50;;;;;;5050729;28;20434;-40
2021/01/13 03:37:07;;;;;;;5.80;4.00;;;8.30;60.20;;;;;;5042949;28;20490;-41
2021/01/13 03:39:36;;;;;;;3.90;3.50;;;8.30;59.40;;;;;;5049195;28;20828;-41
2021/01/13 03:42:18;;;;;;;5.27;3.57;;;8.30;59.30;;;;;;5050470;28;21037;-41
2021/01/13 03:44:46;;;;;;;4.47;3.50;;;8.30;59.30;;;;;;5049632;28;20429;-40
2021/01/13 03:47:29;;;;;;;4.63;3.00;;;8.30;59.10;;;;;;5048815;28;20431;-41
2021/01/13 03:50:02;;;;;;;4.50;3.27;;;8.30;59.20;;;;;;5047725;28;20455;-40
2021/01/13 03:52:37;;;;;;;3.50;3.20;;;8.40;59.20;;;;;;5049917;28;20434;-41
2021/01/13 03:55:04;;;;;;;3.50;2.90;;;8.40;59.20;;;;;;5049899;28;20446;-40
2021/01/13 03:58:01;;;;;;;4.37;3.97;;;8.40;59.20;;;;;;5048814;28;20434;-40
2021/01/13 04:00:39;;;;;;;3.77;3.33;;;8.40;59.10;;;;;;5045225;28;20442;-40
2021/01/13 04:03:22;;;;;;;4.50;3.53;;;8.30;58.90;;;;;;5049412;28;20490;-41
2021/01/13 04:06:12;;;;;;;3.93;3.33;;;8.30;59.00;;;;;;5048805;28;20937;-41
2021/01/13 04:08:45;;;;;;;5.00;3.20;;;8.30;59.00;;;;;;5049418;28;20805;-41
2021/01/13 04:11:12;;;;;;;5.20;4.47;;;8.30;59.20;;;;;;5049487;28;20996;-40
2021/01/13 04:13:43;;;;;;;11.00;5.30;;;8.30;59.30;;;;;;5049963;28;20465;-41
2021/01/13 04:16:11;;;;;;;7.33;3.43;;;8.20;59.10;;;;;;5047589;28;20484;-41
2021/01/13 04:18:38;;;;;;;3.57;3.27;;;8.30;59.20;;;;;;5049262;28;20434;-41
2021/01/13 04:21:05;;;;;;;3.57;3.27;;;8.20;59.10;;;;;;5052884;28;20423;-40
2021/01/13 04:23:31;;;;;;;5.23;3.83;;;8.20;58.90;;;;;;5048727;28;20486;-41
2021/01/13 04:25:58;;;;;;;7.10;4.10;;;8.20;59.30;;;;;;5050038;28;20957;-41
2021/01/13 04:28:24;;;;;;;5.27;3.97;;;8.20;59.20;;;;;;5049415;28;20434;-41
2021/01/13 04:30:50;;;;;;;6.07;4.80;;;8.20;59.10;;;;;;5049340;28;20431;-41
2021/01/13 04:33:16;;;;;;;6.27;4.27;;;8.10;59.20;;;;;;5049196;28;20442;-41
2021/01/13 04:35:42;;;;;;;7.23;4.53;;;8.10;59.30;;;;;;5049804;28;20901;-41
2021/01/13 04:38:09;;;;;;;7.90;3.97;;;8.10;59.40;;;;;;5049300;28;20204;-41
2021/01/13 04:40:35;;;;;;;4.27;3.67;;;8.10;59.50;;;;;;5049542;28;20721;-41
2021/01/13 04:43:06;;;;;;;5.27;3.70;;;8.10;59.50;;;;;;5049248;28;20509;-41
2021/01/13 04:45:46;;;;;;;3.50;3.20;;;8.20;59.50;;;;;;5047141;28;20513;-40
2021/01/13 04:48:13;;;;;;;6.73;3.87;;;8.20;59.40;;;;;;5046931;28;20834;-40
2021/01/13 04:50:44;;;;;;;4.60;3.30;;;8.20;59.30;;;;;;5049312;28;20795;-41
2021/01/13 04:53:15;;;;;;;6.20;3.50;;;8.20;59.20;;;;;;5052266;28;20435;-41
2021/01/13 04:56:02;;;;;;;8.07;3.67;;;8.20;59.20;;;;;;5053176;28;20426;-41
2021/01/13 04:58:36;;;;;;;4.60;3.00;;;8.20;59.70;;;;;;5053292;28;20491;-41
2021/01/13 05:01:39;;;;;;;6.30;3.60;;;8.20;59.10;;;;;;5052624;28;20446;-41
2021/01/13 05:04:21;;;;;;;5.13;3.70;;;8.20;59.10;;;;;;5051793;28;20477;-41
2021/01/13 05:07:24;;;;;;;7.23;4.40;;;8.20;59.30;;;;;;5048986;28;20489;-41
2021/01/13 05:09:50;;;;;;;4.40;3.93;;;8.10;59.20;;;;;;5027940;28;20439;-41
2021/01/13 05:12:17;;;;;;;5.90;5.13;;;8.10;59.50;;;;;;5050229;28;20976;-41
2021/01/13 05:14:44;;;;;;;7.60;4.20;;;8.10;59.30;;;;;;5053306;28;20435;-41
2021/01/13 05:17:32;;;;;;;7.30;4.43;;;8.10;59.50;;;;;;5052048;28;20431;-40
2021/01/13 05:20:06;;;;;;;3.80;3.40;;;8.00;60.00;;;;;;5052844;28;20439;-40
2021/01/13 05:22:33;;;;;;;5.63;5.10;;;8.00;60.40;;;;;;5052082;28;20508;-41
2021/01/13 05:25:06;;;;;;;9.33;4.00;;;8.10;59.90;;;;;;5051544;28;20516;-41
2021/01/13 05:27:47;;;;;;;19.70;17.60;;;8.10;59.50;;;;;;5053668;28;20513;-41
2021/01/13 05:30:13;;;;;;;9.30;6.13;;;8.10;59.30;;;;;;5051994;28;20492;-41
2021/01/13 05:32:40;;;;;;;4.60;3.80;;;8.20;59.20;;;;;;5051800;28;20424;-41
2021/01/13 05:35:06;;;;;;;6.87;4.50;;;8.20;59.10;;;;;;5052462;28;20438;-41
2021/01/13 05:37:51;;;;;;;4.57;4.13;;;8.20;59.60;;;;;;5052097;28;20764;-41
2021/01/13 05:40:17;;;;;;;5.27;4.47;;;8.20;59.20;;;;;;5047281;28;20518;-41
2021/01/13 05:42:45;;;;;;;7.77;4.77;;;8.10;59.30;;;;;;5050972;28;20478;-41
2021/01/13 05:45:12;;;;;;;5.40;4.20;;;8.10;59.10;;;;;;5051089;28;20431;-41
2021/01/13 05:47:55;;;;;;;4.80;3.63;;;8.10;59.00;;;;;;5051117;28;21241;-40
2021/01/13 05:50:25;;;;;;;8.60;4.00;;;8.10;59.00;;;;;;5051922;28;21339;-41
2021/01/13 05:52:55;;;;;;;4.63;4.20;;;8.00;58.90;;;;;;5048262;28;20439;-41
2021/01/13 05:55:21;;;;;;;5.50;3.37;;;8.10;58.80;;;;;;5046610;28;20430;-41
2021/01/13 05:57:58;;;;;;;6.60;3.90;;;8.10;58.50;;;;;;5051318;28;21232;-41
2021/01/13 06:00:25;;;;;;;8.70;3.77;;;8.10;58.60;;;;;;5051185;28;20485;-41
2021/01/13 06:03:03;;;;;;;4.47;3.70;;;8.10;58.50;;;;;;5052020;28;20961;-41
2021/01/13 06:05:34;;;;;;;8.60;4.73;;;8.10;58.50;;;;;;5048714;28;20427;-41
2021/01/13 06:08:03;;;;;;;4.47;3.70;;;8.10;58.40;;;;;;5050200;28;20481;-41
2021/01/13 06:10:36;;;;;;;9.90;4.33;;;8.10;58.40;;;;;;5050252;28;20484;-41
2021/01/13 06:13:06;;;;;;;4.87;3.80;;;8.10;58.40;;;;;;5050603;28;20498;-41
2021/01/13 06:15:33;;;;;;;7.53;5.20;;;8.10;58.40;;;;;;5052588;28;20469;-41
2021/01/13 06:18:00;;;;;;;6.83;4.73;;;8.00;58.20;;;;;;5051128;28;20509;-41
2021/01/13 06:20:30;;;;;;;6.90;4.77;;;8.00;58.20;;;;;;5050613;28;20451;-41
2021/01/13 06:22:58;;;;;;;10.87;7.10;;;8.00;58.10;;;;;;5049211;28;20486;-41
2021/01/13 06:25:27;;;;;;;11.37;7.70;;;7.90;58.20;;;;;;5051907;28;20484;-41
2021/01/13 06:28:04;;;;;;;9.40;7.30;;;7.90;58.20;;;;;;5051530;28;20860;-41
2021/01/13 06:30:31;;;;;;;7.07;5.40;;;7.90;58.30;;;;;;5050881;28;20454;-41
2021/01/13 06:33:05;;;;;;;6.70;4.67;;;7.90;58.20;;;;;;5050683;28;20434;-41
2021/01/13 06:35:42;;;;;;;10.30;6.53;;;7.80;58.70;;;;;;5050020;28;20431;-41
2021/01/13 06:38:24;;;;;;;13.43;5.43;;;8.10;60.20;;;;;;5050609;28;20443;-41
2021/01/13 06:41:00;;;;;;;7.90;4.10;;;8.50;60.20;;;;;;5050398;28;20536;-41
2021/01/13 06:43:26;;;;;;;7.00;3.90;;;8.90;59.30;;;;;;5050534;28;20478;-41
2021/01/13 06:45:52;;;;;;;4.70;4.03;;;9.20;58.20;;;;;;5050742;28;20481;-41
2021/01/13 06:48:28;;;;;;;5.07;4.03;;;9.40;57.30;;;;;;5049929;28;20426;-41
2021/01/13 06:50:59;;;;;;;5.43;3.90;;;9.60;56.10;;;;;;5047872;28;20256;-41
2021/01/13 06:53:36;;;;;;;5.87;4.00;;;9.80;55.00;;;;;;5050066;28;20496;-41
2021/01/13 06:56:09;;;;;;;6.23;4.67;;;9.90;54.40;;;;;;5050655;28;20787;-41
2021/01/13 06:58:37;;;;;;;6.90;4.27;;;10.00;53.40;;;;;;5049158;28;20423;-41
2021/01/13 07:01:04;;;;;;;6.03;4.80;;;10.10;53.00;;;;;;5049986;28;20798;-41
2021/01/13 07:03:31;;;;;;;9.20;7.00;;;10.10;52.40;;;;;;5048371;28;20481;-41
2021/01/13 07:05:57;;;;;;;7.67;5.17;;;10.20;52.40;;;;;;5051661;28;20466;-42
2021/01/13 07:08:23;;;;;;;5.93;4.80;;;10.30;52.20;;;;;;5050084;28;20829;-41
2021/01/13 07:11:04;;;;;;;6.70;4.60;;;10.30;51.80;;;;;;5048700;28;20469;-41
2021/01/13 07:13:33;;;;;;;5.83;3.90;;;10.30;51.40;;;;;;5048478;28;20609;-41
2021/01/13 07:16:03;;;;;;;6.17;4.17;;;10.40;51.70;;;;;;5049899;28;20437;-41
2021/01/13 07:18:30;;;;;;;9.13;3.83;;;10.40;51.40;;;;;;5049033;28;20431;-41
2021/01/13 07:20:56;;;;;;;11.30;4.00;;;10.50;51.30;;;;;;5049556;28;20428;-41
2021/01/13 07:23:22;;;;;;;6.07;4.30;;;10.50;50.50;;;;;;5050138;28;20489;-41
2021/01/13 07:25:49;;;;;;;6.77;4.17;;;10.50;50.20;;;;;;5049473;28;20199;-41
2021/01/13 07:28:15;;;;;;;7.70;4.10;;;10.50;50.20;;;;;;5049772;28;20427;-42
2021/01/13 07:30:42;;;;;;;5.53;4.13;;;10.50;50.00;;;;;;5047912;28;21395;-41
2021/01/13 07:33:11;;;;;;;6.00;3.13;;;10.50;50.40;;;;;;5049334;28;20493;-41
2021/01/13 07:35:43;;;;;;;6.53;4.27;;;10.60;50.40;;;;;;5049371;28;20434;-41
2021/01/13 07:38:19;;;;;;;6.67;3.73;;;10.60;49.80;;;;;;5048393;28;20427;-41
2021/01/13 07:40:58;;;;;;;6.70;4.53;;;10.50;49.50;;;;;;5049610;28;20849;-41
2021/01/13 07:44:25;;;;;;;15.47;9.37;;;10.50;49.90;;;;;;5046560;28;20474;-41
2021/01/13 07:47:01;;;;;;;7.37;4.70;;;10.40;49.80;;;;;;4987513;28;20495;-42
2021/01/13 07:49:42;;;;;;;11.20;5.70;;;10.40;50.20;;;;;;4983976;28;20437;-41
2021/01/13 07:52:09;;;;;;;22.43;14.07;;;10.50;50.30;;;;;;5027276;28;20450;-41
2021/01/13 07:54:36;;;;;;;46.20;29.57;;;10.50;50.30;;;;;;5050758;28;20518;-41
2021/01/13 07:57:06;;;;;;;25.20;17.77;;;10.60;50.30;;;;;;5050970;28;20863;-42
2021/01/13 07:59:47;;;;;;;20.77;12.87;;;10.70;50.20;;;;;;5066461;28;20771;-41
2021/01/13 08:02:49;;;;;;;17.00;10.10;;;10.70;50.00;;;;;;5050125;28;20569;-41
2021/01/13 08:05:24;;;;;;;16.47;11.27;;;10.70;50.00;;;;;;5050219;28;20446;-41
2021/01/13 08:08:11;;;;;;;12.60;9.57;;;10.70;49.80;;;;;;5050149;28;20509;-41
2021/01/13 08:10:41;;;;;;;11.40;7.33;;;10.70;49.90;;;;;;5049742;28;20439;-42
2021/01/13 08:13:22;;;;;;;12.77;8.57;;;10.60;49.90;;;;;;5049832;28;20431;-41
2021/01/13 08:16:12;;;;;;;13.00;7.97;;;10.80;50.60;;;;;;5050373;28;20954;-41
2021/01/13 08:18:55;;;;;;;13.33;8.03;;;11.10;49.90;;;;;;5049417;28;20447;-41
2021/01/13 08:21:27;;;;;;;10.50;6.93;;;11.30;49.50;;;;;;5043286;28;20475;-41
2021/01/13 08:26:29;;;;;;;9.77;8.10;;;11.40;49.10;;;;;;5050666;28;20518;-41
2021/01/13 08:28:58;;;;;;;12.23;8.93;;;11.40;48.80;;;;;;5053844;28;20817;-41
2021/01/13 08:31:27;;;;;;;21.63;9.30;;;11.40;48.90;;;;;;5053666;28;20976;-41
2021/01/13 08:34:08;;;;;;;11.73;5.87;;;11.40;48.80;;;;;;5053808;28;20482;-43
2021/01/13 08:36:54;;;;;;;9.83;6.33;;;11.30;48.80;;;;;;5053953;28;20526;-41
2021/01/13 08:39:30;;;;;;;11.10;5.87;;;11.20;48.70;;;;;;5049132;28;20464;-41
2021/01/13 08:42:31;;;;;;;7.27;4.63;;;11.20;49.00;;;;;;5053473;28;20901;-41
2021/01/13 08:44:57;;;;;;;6.60;5.40;;;11.20;48.40;;;;;;5051100;28;20434;-41
2021/01/13 08:47:24;;;;;;;11.23;5.30;;;11.10;48.40;;;;;;5051772;28;20569;-41
2021/01/13 08:49:50;;;;;;;9.27;4.80;;;11.10;48.70;;;;;;5052458;28;20193;-41
2021/01/13 08:52:23;;;;;;;8.90;5.37;;;11.10;48.70;;;;;;5051091;28;20431;-41
2021/01/13 08:54:48;;;;;;;6.10;4.47;;;11.00;48.30;;;;;;5051843;28;20452;-40
2021/01/13 08:57:15;;;;;;;10.67;6.17;;;10.80;48.30;;;;;;5052758;28;21904;-41
2021/01/13 08:59:46;;;;;;;9.60;5.80;;;10.60;48.70;;;;;;5049326;28;20199;-41
2021/01/13 09:02:17;;;;;;;9.70;4.47;;;10.40;49.40;;;;;;5055442;28;21131;-41
2021/01/13 09:04:58;;;;;;;5.53;4.17;;;10.20;50.00;;;;;;5052419;28;20860;-40
2021/01/13 09:07:27;;;;;;;8.00;4.30;;;10.00;50.30;;;;;;5053284;28;20439;-41
2021/01/13 09:10:03;;;;;;;8.70;3.80;;;9.80;51.50;;;;;;5052418;28;20434;-40
2021/01/13 09:12:36;;;;;;;8.87;3.73;;;9.80;51.70;;;;;;5053952;28;20438;-40
2021/01/13 09:15:07;;;;;;;6.30;3.40;;;9.70;51.70;;;;;;5052374;28;20435;-40
2021/01/13 09:17:33;;;;;;;8.73;4.00;;;9.60;51.90;;;;;;5052469;28;20427;-41
2021/01/13 09:20:02;;;;;;;6.93;3.77;;;9.50;52.20;;;;;;5052517;28;20848;-41
2021/01/13 09:22:48;;;;;;;6.00;4.20;;;9.40;52.30;;;;;;5056011;28;20601;-41
2021/01/13 09:25:29;;;;;;;5.20;3.20;;;9.40;52.40;;;;;;5053207;28;20443;-40
2021/01/13 09:28:03;;;;;;;3.77;2.83;;;9.40;52.50;;;;;;5052974;28;20419;-41
2021/01/13 09:30:41;;;;;;;8.90;3.90;;;9.30;52.00;;;;;;5054237;28;20430;-40
2021/01/13 09:33:13;;;;;;;7.67;3.30;;;9.30;52.30;;;;;;5052258;28;20976;-40
2021/01/13 09:35:47;;;;;;;7.23;3.80;;;9.20;52.60;;;;;;5053139;28;20435;-41
2021/01/13 09:38:15;;;;;;;5.07;3.77;;;9.20;52.40;;;;;;5051712;28;20449;-40
2021/01/13 09:40:53;;;;;;;3.93;2.80;;;9.10;52.70;;;;;;5052232;28;20810;-41
2021/01/13 09:43:34;;;;;;;5.67;3.30;;;9.10;52.60;;;;;;5050352;28;20478;-41
2021/01/13 09:46:03;;;;;;;12.17;3.40;;;9.00;52.80;;;;;;5051753;28;20481;-40
2021/01/13 09:48:32;;;;;;;5.37;3.63;;;8.80;52.80;;;;;;5048322;28;20823;-41
2021/01/13 09:51:11;;;;;;;4.97;3.20;;;8.90;53.30;;;;;;5052142;28;20439;-41
2021/01/13 09:53:47;;;;;;;4.40;2.73;;;9.00;54.00;;;;;;5050710;28;20450;-40
2021/01/13 09:56:13;;;;;;;5.40;2.63;;;9.00;53.20;;;;;;5050246;28;20528;-41
2021/01/13 09:58:44;;;;;;;3.73;2.80;;;9.20;53.30;;;;;;5052034;28;20462;-41
2021/01/13 10:01:10;;;;;;;7.60;2.97;;;9.20;53.10;;;;;;5051816;28;20551;-41
2021/01/13 10:03:36;;;;;;;7.47;3.00;;;9.00;52.90;;;;;;5050994;28;20482;-41
2021/01/13 10:06:03;;;;;;;6.80;3.17;;;8.90;53.00;;;;;;5050485;28;20612;-41
2021/01/13 10:08:32;;;;;;;5.10;3.10;;;8.80;53.40;;;;;;5051571;28;20431;-41
2021/01/13 10:11:01;;;;;;;5.60;2.80;;;8.70;53.60;;;;;;5049541;28;20459;-40
2021/01/13 10:13:29;;;;;;;4.83;2.60;;;8.70;54.10;;;;;;5050888;28;20453;-41
2021/01/13 10:16:00;;;;;;;3.37;3.07;;;8.70;54.00;;;;;;5049899;28;20427;-40
2021/01/13 10:18:27;;;;;;;3.87;2.33;;;8.60;53.90;;;;;;5047162;28;20454;-41
2021/01/13 10:21:01;;;;;;;5.17;2.60;;;8.30;54.20;;;;;;5051969;28;20519;-40
2021/01/13 10:23:28;;;;;;;7.07;2.80;;;8.00;55.10;;;;;;5049585;28;20487;-40
2021/01/13 10:26:06;;;;;;;6.17;2.60;;;8.00;55.30;;;;;;5052466;28;20428;-40
2021/01/13 10:28:32;;;;;;;4.20;2.73;;;8.10;55.30;;;;;;5050155;28;20443;-40
2021/01/13 10:30:58;;;;;;;6.37;2.13;;;8.00;55.20;;;;;;5051716;28;20513;-41
2021/01/13 10:33:42;;;;;;;7.73;3.10;;;7.80;55.30;;;;;;5055217;28;20487;-40
2021/01/13 10:36:08;;;;;;;6.30;2.50;;;7.80;56.20;;;;;;5047829;28;20446;-40
2021/01/13 10:38:37;;;;;;;3.63;2.83;;;7.90;55.70;;;;;;5051003;28;20469;-40
2021/01/13 10:41:04;;;;;;;8.47;2.50;;;8.10;55.70;;;;;;5049897;28;20497;-41
2021/01/13 10:43:33;;;;;;;4.53;2.70;;;8.20;55.80;;;;;;5047277;28;20552;-40
2021/01/13 10:46:00;;;;;;;5.03;2.63;;;8.20;55.40;;;;;;5050449;28;20834;-40
2021/01/13 10:48:26;;;;;;;5.53;2.60;;;8.10;55.50;;;;;;5048835;28;20485;-41
2021/01/13 10:50:59;;;;;;;4.40;2.23;;;8.30;55.70;;;;;;5050045;28;20439;-41
2021/01/13 10:53:32;;;;;;;4.30;2.43;;;8.20;55.80;;;;;;5050823;28;20237;-40
2021/01/13 10:56:07;;;;;;;2.77;2.30;;;8.00;55.60;;;;;;5050785;28;20431;-40
2021/01/13 10:58:36;;;;;;;7.73;2.30;;;8.00;56.30;;;;;;5043163;28;20872;-40
2021/01/13 11:01:05;;;;;;;10.97;3.00;;;8.00;56.60;;;;;;5050769;28;20436;-41
2021/01/13 11:03:34;;;;;;;6.83;2.40;;;8.20;56.30;;;;;;5049843;28;20971;-41
2021/01/13 11:06:00;;;;;;;4.90;2.33;;;8.20;55.80;;;;;;5050826;28;20431;-41
2021/01/13 11:08:29;;;;;;;8.73;2.50;;;8.20;55.70;;;;;;5050389;28;20430;-40
2021/01/13 11:11:06;;;;;;;2.40;1.67;;;8.20;55.80;;;;;;5049444;28;20431;-41
2021/01/13 11:13:42;;;;;;;3.50;1.87;;;7.90;55.50;;;;;;5048703;28;20447;-41
2021/01/13 11:16:08;;;;;;;3.83;2.37;;;7.80;56.10;;;;;;5051372;28;20430;-40
2021/01/13 11:18:36;;;;;;;6.07;2.13;;;7.60;56.10;;;;;;5049520;28;20431;-40
2021/01/13 11:21:07;;;;;;;4.20;2.23;;;7.50;56.80;;;;;;5050329;28;20189;-40
2021/01/13 11:23:44;;;;;;;5.07;1.83;;;7.30;56.70;;;;;;5048927;28;20513;-40
2021/01/13 11:26:10;;;;;;;4.10;2.23;;;7.50;57.60;;;;;;5046849;28;20465;-41
2021/01/13 11:28:39;;;;;;;5.23;2.03;;;7.70;57.20;;;;;;5042781;28;20451;-42
2021/01/13 11:31:05;;;;;;;4.00;2.03;;;7.60;56.80;;;;;;5046160;28;20982;-41
2021/01/13 11:33:31;;;;;;;6.43;2.70;;;7.70;56.90;;;;;;5041870;28;20530;-41
2021/01/13 11:35:57;;;;;;;7.33;2.30;;;7.70;56.30;;;;;;5048148;28;20542;-41
2021/01/13 11:38:53;;;;;;;4.67;2.60;;;7.80;56.10;;;;;;5047225;28;20486;-41
2021/01/13 11:41:30;;;;;;;7.70;2.57;;;8.00;56.50;;;;;;5045983;28;20236;-41
2021/01/13 11:44:05;;;;;;;4.83;2.27;;;8.20;56.60;;;;;;5045549;28;20474;-41
2021/01/13 11:46:38;;;;;;;3.53;2.37;;;8.30;56.00;;;;;;5044915;28;20438;-41
2021/01/13 11:49:49;;;;;;;3.67;2.13;;;8.30;55.80;;;;;;5048317;28;20440;-41
2021/01/13 11:52:17;;;;;;;5.20;2.00;;;8.50;55.90;;;;;;5012711;28;20487;-41
2021/01/13 11:54:48;;;;;;;4.80;2.47;;;8.50;55.20;;;;;;5050058;28;20423;-41
2021/01/13 11:57:36;;;;;;;4.87;2.03;;;8.50;54.70;;;;;;5049140;28;20517;-41
2021/01/13 12:00:14;;;;;;;6.03;2.30;;;8.50;54.70;;;;;;5044917;28;20449;-41
2021/01/13 12:02:39;;;;;;;7.80;2.00;;;8.50;54.60;;;;;;5049642;28;20776;-41
2021/01/13 12:05:07;;;;;;;5.30;1.73;;;8.40;54.10;;;;;;5049090;28;20501;-41
2021/01/13 12:07:32;;;;;;;4.47;1.93;;;8.40;54.00;;;;;;5047918;28;20192;-41
2021/01/13 12:10:13;;;;;;;3.93;1.63;;;8.20;53.90;;;;;;5049726;28;20427;-41
2021/01/13 12:12:40;;;;;;;5.57;1.77;;;8.20;54.20;;;;;;5055653;28;20524;-41
2021/01/13 12:15:10;;;;;;;5.57;2.00;;;8.30;54.10;;;;;;5049817;28;20457;-41
2021/01/13 12:17:50;;;;;;;7.10;2.17;;;8.20;53.90;;;;;;5048730;28;20427;-41
2021/01/13 12:20:32;;;;;;;2.23;1.43;;;8.30;53.70;;;;;;5047951;28;20946;-41
2021/01/13 12:22:58;;;;;;;4.13;1.80;;;8.50;54.20;;;;;;5041649;28;20486;-41
2021/01/13 12:25:25;;;;;;;2.77;1.60;;;8.70;53.50;;;;;;5057189;28;20422;-41
2021/01/13 12:28:11;;;;;;;3.43;1.30;;;8.90;53.00;;;;;;5048943;28;20271;-41
2021/01/13 12:30:37;;;;;;;2.10;0.90;;;9.00;52.10;;;;;;5048739;28;20435;-41
2021/01/13 12:33:03;;;;;;;1.70;0.83;;;8.90;50.00;;;;;;5048572;28;20423;-41
2021/01/13 12:35:30;;;;;;;2.23;1.13;;;8.50;49.80;;;;;;5048762;28;20204;-41
2021/01/13 12:37:56;;;;;;;1.57;0.97;;;8.60;51.20;;;;;;5043287;28;20438;-42
2021/01/13 12:40:32;;;;;;;3.63;1.27;;;8.40;51.00;;;;;;5046484;28;20446;-42
2021/01/13 12:43:19;;;;;;;2.30;0.93;;;8.50;51.20;;;;;;5047320;28;20521;-42
2021/01/13 12:45:46;;;;;;;1.30;1.20;;;8.60;51.20;;;;;;5064077;28;20921;-42
2021/01/13 12:48:13;;;;;;;2.03;0.87;;;8.60;50.40;;;;;;5048874;28;20526;-42
2021/01/13 12:50:40;;;;;;;4.20;1.40;;;8.80;50.80;;;;;;5054216;28;20439;-42
2021/01/13 12:53:05;;;;;;;7.00;1.70;;;8.90;50.40;;;;;;5047015;28;20434;-42
2021/01/13 12:55:31;;;;;;;2.63;1.00;;;9.00;50.40;;;;;;5046319;28;20430;-42
2021/01/13 12:57:57;;;;;;;6.50;1.30;;;9.00;49.80;;;;;;5052538;28;20227;-42
2021/01/13 13:00:24;;;;;;;2.97;0.83;;;9.00;50.20;;;;;;5052483;28;20563;-42
2021/01/13 13:02:50;;;;;;;1.80;0.80;;;8.90;49.30;;;;;;5047177;28;22425;-42
2021/01/13 13:05:16;;;;;;;4.23;1.53;;;8.90;49.70;;;;;;5047960;28;20431;-42
2021/01/13 13:07:42;;;;;;;3.87;1.40;;;8.80;50.20;;;;;;5060803;28;20434;-41
2021/01/13 13:10:09;;;;;;;4.20;1.37;;;8.80;50.40;;;;;;5065327;28;20439;-42
2021/01/13 13:12:34;;;;;;;3.30;1.30;;;9.00;50.60;;;;;;5063268;28;20434;-42
2021/01/13 13:15:00;;;;;;;5.07;1.33;;;9.20;49.60;;;;;;5060611;28;20534;-42
2021/01/13 13:17:25;;;;;;;1.20;0.77;;;9.00;49.50;;;;;;5051002;28;20199;-42
2021/01/13 13:19:51;;;;;;;7.03;1.20;;;9.30;49.80;;;;;;5060967;28;20189;-42
2021/01/13 13:22:16;;;;;;;1.50;1.17;;;9.60;49.30;;;;;;5072115;28;20937;-42